createdAt,value
2018-12-18T00:00:15.327Z,37.37
2018-12-18T00:02:22.155Z,38.80
2018-12-18T00:04:29.162Z,36.43
2018-12-18T00:06:35.306Z,39.07
2018-12-18T00:08:41.547Z,38.20
2018-12-18T00:10:53.166Z,35.90
2018-12-18T00:13:00.337Z,38.40
2018-12-18T00:15:07.183Z,35.67
2018-12-18T00:17:14.218Z,38.17
2018-12-18T00:19:23.401Z,36.67
2018-12-18T00:21:28.345Z,39.73
2018-12-18T00:23:35.088Z,42.43
2018-12-18T00:25:40.841Z,39.03
2018-12-18T00:27:48.235Z,40.80
2018-12-18T00:29:54.541Z,40.23
2018-12-18T00:31:59.471Z,42.07
2018-12-18T00:34:05.259Z,37.80
2018-12-18T00:36:12.347Z,40.03
2018-12-18T00:38:18.617Z,38.50
2018-12-18T00:40:24.667Z,44.87
2018-12-18T00:42:31.659Z,41.97
2018-12-18T00:44:38.491Z,38.90
2018-12-18T00:46:45.673Z,37.07
2018-12-18T00:48:51.839Z,34.43
2018-12-18T00:50:59.661Z,37.93
2018-12-18T00:53:10.885Z,41.40
2018-12-18T00:55:17.598Z,35.30
2018-12-18T00:57:25.165Z,42.07
2018-12-18T00:59:31.626Z,38.97
2018-12-18T01:01:38.699Z,39.20
2018-12-18T01:03:45.810Z,41.80
2018-12-18T01:05:56.663Z,41.33
2018-12-18T01:08:03.403Z,39.50
2018-12-18T01:10:11.426Z,41.17
2018-12-18T01:12:23.030Z,38.07
2018-12-18T01:14:29.137Z,39.03
2018-12-18T01:16:35.323Z,38.97
2018-12-18T01:18:42.298Z,41.30
2018-12-18T01:20:48.604Z,37.03
2018-12-18T01:22:54.886Z,38.77
2018-12-18T01:25:01.703Z,39.07
2018-12-18T01:27:07.852Z,44.70
2018-12-18T01:29:12.099Z,41.97
2018-12-18T01:31:18.495Z,38.73
2018-12-18T01:33:24.999Z,40.87
2018-12-18T01:35:31.260Z,42.40
2018-12-18T01:37:39.737Z,38.23
2018-12-18T01:39:46.251Z,38.90
2018-12-18T01:41:51.914Z,34.13
2018-12-18T01:43:58.449Z,40.07
2018-12-18T01:46:04.941Z,38.30
2018-12-18T01:48:10.869Z,42.77
2018-12-18T01:50:18.762Z,38.67
2018-12-18T01:52:25.769Z,40.47
2018-12-18T01:54:33.257Z,38.77
2018-12-18T01:56:41.163Z,38.73
2018-12-18T01:58:46.831Z,38.77
2018-12-18T02:00:53.337Z,38.63
2018-12-18T02:03:01.120Z,39.23
2018-12-18T02:05:07.938Z,40.93
2018-12-18T02:07:14.186Z,37.43
2018-12-18T02:09:20.234Z,37.60
2018-12-18T02:11:26.506Z,39.13
2018-12-18T02:13:33.165Z,41.57
2018-12-18T02:15:39.555Z,39.97
2018-12-18T02:17:45.801Z,40.77
2018-12-18T02:19:54.314Z,39.53
2018-12-18T02:22:00.646Z,39.07
2018-12-18T02:24:06.546Z,38.57
2018-12-18T02:26:12.821Z,37.37
2018-12-18T02:28:18.554Z,37.70
2018-12-18T02:30:29.065Z,37.07
2018-12-18T02:32:36.407Z,36.53
2018-12-18T02:34:43.047Z,42.60
2018-12-18T02:36:50.123Z,36.80
2018-12-18T02:38:57.399Z,38.87
2018-12-18T02:41:04.366Z,37.33
2018-12-18T02:43:11.310Z,37.13
2018-12-18T02:45:15.470Z,38.30
2018-12-18T02:47:20.602Z,40.60
2018-12-18T02:49:28.252Z,38.20
2018-12-18T02:51:37.175Z,37.63
2018-12-18T02:53:43.301Z,43.20
2018-12-18T02:55:49.482Z,37.20
2018-12-18T02:57:56.099Z,42.40
2018-12-18T03:00:04.019Z,42.50
2018-12-18T03:02:11.353Z,39.07
2018-12-18T03:04:22.036Z,39.23
2018-12-18T03:06:27.472Z,43.20
2018-12-18T03:08:33.683Z,43.27
2018-12-18T03:10:40.458Z,43.13
2018-12-18T03:12:47.113Z,41.23
2018-12-18T03:14:55.173Z,43.67
2018-12-18T03:17:01.779Z,40.23
2018-12-18T03:19:08.253Z,42.50
2018-12-18T03:21:15.285Z,42.40
2018-12-18T03:23:21.166Z,40.37
2018-12-18T03:25:25.602Z,43.30
2018-12-18T03:27:29.637Z,47.53
2018-12-18T03:29:35.052Z,47.17
2018-12-18T03:31:45.454Z,40.77
2018-12-18T03:33:51.283Z,44.93
2018-12-18T03:35:58.090Z,42.03
2018-12-18T03:38:09.356Z,45.50
2018-12-18T03:40:17.486Z,46.10
2018-12-18T03:42:23.231Z,42.57
2018-12-18T03:44:30.318Z,42.67
2018-12-18T03:46:37.478Z,38.57
2018-12-18T03:48:45.998Z,49.87
2018-12-18T03:50:53.411Z,49.87
2018-12-18T03:53:01.314Z,42.30
2018-12-18T03:55:07.597Z,51.53
2018-12-18T03:57:12.913Z,43.77
2018-12-18T03:59:17.750Z,41.43
2018-12-18T04:01:22.622Z,34.90
2018-12-18T04:03:30.598Z,43.13
2018-12-18T04:05:39.709Z,43.20
2018-12-18T04:07:45.426Z,42.10
2018-12-18T04:09:51.785Z,41.87
2018-12-18T04:12:02.878Z,44.80
2018-12-18T04:14:09.706Z,31.10
2018-12-18T04:16:16.486Z,39.07
2018-12-18T04:18:22.018Z,42.60
2018-12-18T04:20:29.090Z,40.23
2018-12-18T04:22:36.718Z,48.73
2018-12-18T04:24:42.868Z,44.13
2018-12-18T04:26:49.613Z,42.80
2018-12-18T04:28:56.603Z,42.03
2018-12-18T04:31:03.248Z,45.47
2018-12-18T04:33:09.797Z,40.13
2018-12-18T04:35:15.076Z,41.30
2018-12-18T04:37:21.101Z,40.37
2018-12-18T04:39:27.849Z,50.03
2018-12-18T04:41:35.725Z,42.83
2018-12-18T04:43:43.977Z,46.87
2018-12-18T04:45:50.410Z,43.73
2018-12-18T04:47:57.905Z,44.47
2018-12-18T04:50:04.716Z,48.97
2018-12-18T04:52:10.604Z,48.10
2018-12-18T04:54:15.338Z,42.60
2018-12-18T04:56:22.831Z,47.10
2018-12-18T04:58:29.721Z,40.73
2018-12-18T05:00:36.908Z,43.17
2018-12-18T05:02:43.194Z,44.53
2018-12-18T05:04:50.599Z,43.17
2018-12-18T05:06:57.898Z,45.33
2018-12-18T05:09:04.492Z,42.63
2018-12-18T05:11:10.699Z,45.50
2018-12-18T05:13:15.169Z,38.30
2018-12-18T05:15:21.866Z,43.87
2018-12-18T05:17:26.560Z,44.03
2018-12-18T05:19:34.283Z,40.17
2018-12-18T05:21:39.914Z,37.30
2018-12-18T05:23:46.541Z,36.43
2018-12-18T05:25:52.717Z,35.80
2018-12-18T05:27:58.858Z,36.70
2018-12-18T05:30:05.299Z,34.80
2018-12-18T05:32:12.362Z,33.57
2018-12-18T05:34:23.437Z,38.70
2018-12-18T05:36:29.940Z,36.23
2018-12-18T05:38:37.919Z,35.87
2018-12-18T05:40:44.201Z,37.27
2018-12-18T05:42:50.102Z,35.30
2018-12-18T05:44:59.872Z,35.40
2018-12-18T05:47:06.711Z,34.40
2018-12-18T05:49:14.124Z,33.80
2018-12-18T05:51:22.646Z,35.73
2018-12-18T05:53:29.838Z,36.37
2018-12-18T05:55:36.938Z,36.23
2018-12-18T05:57:44.272Z,38.77
2018-12-18T05:59:52.169Z,39.73
2018-12-18T06:01:59.753Z,37.40
2018-12-18T06:04:06.224Z,36.40
2018-12-18T06:06:11.980Z,37.33
2018-12-18T06:08:18.370Z,39.90
2018-12-18T06:10:25.353Z,37.57
2018-12-18T06:12:30.415Z,36.83
2018-12-18T06:14:36.482Z,35.53
2018-12-18T06:16:43.405Z,36.53
2018-12-18T06:18:50.026Z,37.40
2018-12-18T06:21:03.595Z,36.63
2018-12-18T06:23:08.605Z,37.20
2018-12-18T06:25:16.473Z,42.67
2018-12-18T06:27:23.609Z,36.60
2018-12-18T06:29:31.081Z,37.80
2018-12-18T06:31:37.109Z,40.47
2018-12-18T06:33:41.504Z,38.33
2018-12-18T06:35:45.602Z,39.80
2018-12-18T06:37:52.276Z,37.23
2018-12-18T06:39:59.305Z,41.13
2018-12-18T06:42:05.138Z,39.83
2018-12-18T06:44:11.466Z,40.03
2018-12-18T06:46:17.418Z,42.47
2018-12-18T06:48:25.630Z,44.17
2018-12-18T06:50:31.305Z,43.23
2018-12-18T06:52:37.673Z,39.50
2018-12-18T06:54:44.246Z,45.03
2018-12-18T06:56:51.417Z,42.73
2018-12-18T06:58:58.402Z,45.07
2018-12-18T07:01:05.964Z,48.33
2018-12-18T07:03:17.786Z,50.97
2018-12-18T07:05:23.793Z,46.63
2018-12-18T07:07:30.809Z,50.10
2018-12-18T07:09:36.764Z,45.10
2018-12-18T07:11:43.498Z,50.90
2018-12-18T07:13:50.458Z,48.93
2018-12-18T07:15:56.434Z,54.90
2018-12-18T07:18:02.782Z,48.00
2018-12-18T07:20:08.878Z,55.33
2018-12-18T07:22:16.418Z,55.90
2018-12-18T07:24:22.006Z,53.37
2018-12-18T07:26:26.983Z,48.27
2018-12-18T07:28:33.062Z,49.93
2018-12-18T07:30:37.946Z,64.80
2018-12-18T07:32:49.065Z,64.77
2018-12-18T07:34:55.726Z,55.70
2018-12-18T07:37:03.307Z,62.63
2018-12-18T07:39:11.326Z,54.80
2018-12-18T07:41:18.169Z,57.23
2018-12-18T07:43:24.362Z,58.20
2018-12-18T07:45:29.595Z,59.90
2018-12-18T07:47:38.402Z,56.00
2018-12-18T07:49:44.178Z,59.63
2018-12-18T07:51:50.453Z,50.87
2018-12-18T07:53:56.711Z,40.00
2018-12-18T07:56:02.766Z,51.60
2018-12-18T07:58:10.885Z,59.03
2018-12-18T08:00:17.366Z,72.00
2018-12-18T08:02:22.083Z,42.07
2018-12-18T08:04:26.886Z,55.73
2018-12-18T08:06:33.485Z,53.20
2018-12-18T08:08:40.398Z,63.50
2018-12-18T08:10:46.674Z,66.63
2018-12-18T08:12:54.873Z,67.80
2018-12-18T08:15:01.645Z,45.80
2018-12-18T08:17:07.797Z,65.97
2018-12-18T08:19:15.017Z,67.97
2018-12-18T08:21:21.162Z,52.30
2018-12-18T08:23:27.041Z,75.10
2018-12-18T08:25:33.197Z,62.37
2018-12-18T08:27:39.183Z,58.70
2018-12-18T08:29:44.881Z,48.57
2018-12-18T08:31:51.555Z,72.40
2018-12-18T08:33:57.933Z,62.17
2018-12-18T08:36:03.401Z,79.23
2018-12-18T08:38:10.426Z,62.63
2018-12-18T08:40:17.006Z,70.77
2018-12-18T08:42:23.137Z,59.17
2018-12-18T08:44:29.348Z,75.47
2018-12-18T08:46:34.698Z,75.87
2018-12-18T08:48:41.513Z,63.17
2018-12-18T08:50:47.931Z,72.47
2018-12-18T08:52:55.961Z,71.63
2018-12-18T08:55:01.780Z,74.40
2018-12-18T08:57:08.037Z,72.97
2018-12-18T08:59:13.953Z,60.87
2018-12-18T09:01:21.209Z,73.73
2018-12-18T09:03:29.892Z,50.47
2018-12-18T09:05:45.043Z,59.43
2018-12-18T09:07:51.570Z,61.50
2018-12-18T09:10:01.679Z,69.27
2018-12-18T09:12:10.245Z,61.60
2018-12-18T09:14:16.234Z,56.17
2018-12-18T09:16:30.353Z,86.37
2018-12-18T09:18:36.412Z,61.23
2018-12-18T09:20:42.118Z,61.27
2018-12-18T09:22:49.072Z,60.43
2018-12-18T09:24:55.456Z,65.23
2018-12-18T09:27:01.330Z,68.03
2018-12-18T09:29:08.233Z,61.60
2018-12-18T09:31:14.963Z,71.93
2018-12-18T09:33:20.712Z,60.67
2018-12-18T09:35:27.167Z,66.73
2018-12-18T09:37:33.755Z,67.27
2018-12-18T09:39:43.101Z,62.00
2018-12-18T09:41:51.181Z,49.67
2018-12-18T09:44:01.494Z,54.10
2018-12-18T09:46:07.007Z,54.57
2018-12-18T09:48:14.029Z,57.40
2018-12-18T09:50:21.009Z,62.87
2018-12-18T09:52:26.379Z,63.80
2018-12-18T09:54:36.799Z,57.23
2018-12-18T09:56:52.637Z,58.10
2018-12-18T09:59:01.261Z,60.33
2018-12-18T10:01:06.942Z,53.53
2018-12-18T10:03:25.042Z,49.13
2018-12-18T10:05:32.793Z,55.67
2018-12-18T10:07:38.829Z,60.77
2018-12-18T10:09:45.609Z,54.80
2018-12-18T10:11:51.926Z,55.83
2018-12-18T10:13:58.228Z,54.37
2018-12-18T10:16:05.113Z,55.33
2018-12-18T10:18:12.061Z,51.67
2018-12-18T10:20:17.262Z,57.20
2018-12-18T10:22:21.956Z,52.13
2018-12-18T10:24:27.968Z,51.63
2018-12-18T10:26:34.730Z,51.40
2018-12-18T10:28:41.015Z,44.60
2018-12-18T10:30:47.947Z,55.50
2018-12-18T10:32:54.156Z,51.97
2018-12-18T10:35:00.169Z,49.53
2018-12-18T10:37:05.833Z,48.17
2018-12-18T10:39:12.780Z,52.23
2018-12-18T10:41:18.761Z,45.03
2018-12-18T10:43:25.986Z,42.93
2018-12-18T10:45:33.937Z,50.97
2018-12-18T10:47:39.850Z,45.17
2018-12-18T10:49:47.186Z,45.77
2018-12-18T10:51:53.417Z,37.57
2018-12-18T10:54:04.073Z,46.10
2018-12-18T10:56:09.331Z,43.97
2018-12-18T10:58:14.968Z,42.47
2018-12-18T11:00:25.259Z,42.63
2018-12-18T11:02:31.899Z,49.87
2018-12-18T11:04:36.616Z,46.23
2018-12-18T11:06:43.095Z,39.87
2018-12-18T11:08:50.569Z,42.93
2018-12-18T11:10:56.583Z,46.57
2018-12-18T11:13:06.325Z,49.07
2018-12-18T11:15:11.253Z,43.33
2018-12-18T11:17:16.115Z,31.67
2018-12-18T11:19:20.811Z,47.90
2018-12-18T11:21:25.200Z,46.57
2018-12-18T11:23:30.025Z,41.13
2018-12-18T11:25:35.236Z,39.07
2018-12-18T11:27:40.696Z,39.83
2018-12-18T11:29:47.677Z,36.57
2018-12-18T11:31:55.024Z,37.97
2018-12-18T11:34:00.554Z,36.77
2018-12-18T11:36:06.209Z,38.53
2018-12-18T11:38:14.730Z,31.93
2018-12-18T11:40:19.458Z,34.37
2018-12-18T11:42:25.349Z,35.17
2018-12-18T11:44:31.746Z,32.40
2018-12-18T11:46:38.573Z,34.80
2018-12-18T11:48:47.632Z,34.60
2018-12-18T11:50:54.361Z,34.50
2018-12-18T11:53:00.079Z,35.87
2018-12-18T11:55:05.277Z,32.80
2018-12-18T11:57:10.239Z,33.20
2018-12-18T11:59:17.258Z,35.47
2018-12-18T12:01:22.926Z,31.53
2018-12-18T12:03:29.939Z,34.60
2018-12-18T12:05:36.253Z,33.33
2018-12-18T12:07:47.117Z,30.03
2018-12-18T12:09:54.538Z,31.97
2018-12-18T12:11:59.703Z,31.27
2018-12-18T12:14:06.374Z,22.07
2018-12-18T12:16:13.261Z,32.33
2018-12-18T12:18:19.658Z,21.97
2018-12-18T12:20:26.741Z,14.97
2018-12-18T12:22:32.850Z,24.57
2018-12-18T12:24:39.068Z,24.07
2018-12-18T12:26:49.420Z,27.13
2018-12-18T12:28:54.770Z,26.03
2018-12-18T12:31:00.940Z,26.53
2018-12-18T12:33:06.986Z,24.33
2018-12-18T12:35:14.441Z,23.17
2018-12-18T12:37:22.028Z,22.50
2018-12-18T12:39:28.657Z,23.63
2018-12-18T12:41:33.164Z,21.63
2018-12-18T12:43:38.089Z,22.57
2018-12-18T12:45:43.749Z,17.20
2018-12-18T12:47:54.098Z,17.53
2018-12-18T12:49:59.996Z,21.97
2018-12-18T12:52:06.362Z,17.50
2018-12-18T12:54:12.442Z,13.47
2018-12-18T12:56:18.990Z,16.10
2018-12-18T12:58:25.343Z,14.87
2018-12-18T13:00:32.283Z,17.63
2018-12-18T13:02:39.014Z,12.93
2018-12-18T13:04:46.258Z,16.80
2018-12-18T13:06:52.009Z,14.03
2018-12-18T13:09:00.079Z,16.93
2018-12-18T13:11:06.449Z,13.57
2018-12-18T13:13:13.646Z,19.83
2018-12-18T13:15:20.210Z,17.70
2018-12-18T13:17:26.582Z,17.63
2018-12-18T13:19:32.555Z,15.07
2018-12-18T13:21:38.793Z,19.87
2018-12-18T13:23:46.340Z,18.03
2018-12-18T13:25:53.578Z,15.63
2018-12-18T13:28:00.691Z,16.80
2018-12-18T13:30:06.769Z,12.80
2018-12-18T13:32:13.650Z,13.23
2018-12-18T13:34:19.790Z,17.67
2018-12-18T13:36:26.674Z,22.83
2018-12-18T13:38:32.876Z,17.97
2018-12-18T13:40:37.962Z,21.23
2018-12-18T13:42:44.842Z,20.80
2018-12-18T13:44:51.177Z,18.70
2018-12-18T13:46:57.357Z,18.70
2018-12-18T13:49:04.662Z,21.87
2018-12-18T13:51:12.489Z,19.80
2018-12-18T13:53:19.178Z,19.13
2018-12-18T13:55:25.802Z,21.83
2018-12-18T13:57:32.041Z,21.97
2018-12-18T13:59:38.071Z,17.13
2018-12-18T14:01:44.742Z,17.10
2018-12-18T14:03:52.162Z,20.83
2018-12-18T14:05:59.241Z,20.73
2018-12-18T14:08:05.010Z,19.87
2018-12-18T14:10:14.321Z,19.37
2018-12-18T14:12:21.258Z,23.17
2018-12-18T14:14:28.141Z,20.17
2018-12-18T14:16:35.373Z,19.13
2018-12-18T14:18:40.562Z,21.23
2018-12-18T14:20:46.575Z,18.27
2018-12-18T14:22:54.485Z,16.60
2018-12-18T14:25:00.764Z,18.87
2018-12-18T14:27:08.554Z,17.20
2018-12-18T14:29:16.073Z,22.07
2018-12-18T14:31:22.454Z,15.37
2018-12-18T14:33:28.709Z,17.00
2018-12-18T14:35:34.463Z,16.07
2018-12-18T14:37:41.158Z,16.33
2018-12-18T14:39:47.546Z,17.67
2018-12-18T14:41:53.642Z,11.10
2018-12-18T14:43:58.818Z,16.90
2018-12-18T14:46:05.054Z,10.73
2018-12-18T14:48:11.209Z,10.20
2018-12-18T14:50:17.551Z,12.43
2018-12-18T14:52:23.470Z,18.50
2018-12-18T14:54:29.833Z,15.87
2018-12-18T14:56:36.176Z,16.03
2018-12-18T14:58:45.490Z,17.50
2018-12-18T15:00:51.406Z,19.03
2018-12-18T15:02:57.416Z,20.50
2018-12-18T15:05:02.922Z,20.67
2018-12-18T15:07:10.154Z,17.67
2018-12-18T15:09:15.619Z,15.00
2018-12-18T15:11:21.776Z,21.95
2018-12-18T15:13:30.762Z,19.50
2018-12-18T15:15:37.551Z,17.00
2018-12-18T15:17:41.952Z,23.73
2018-12-18T15:19:46.206Z,23.50
2018-12-18T15:21:51.335Z,22.27
2018-12-18T15:23:56.462Z,22.70
2018-12-18T15:26:02.132Z,25.03
2018-12-18T15:28:07.853Z,23.60
2018-12-18T15:30:13.450Z,23.90
2018-12-18T15:32:18.547Z,22.03
2018-12-18T15:34:23.997Z,23.27
2018-12-18T15:36:30.897Z,23.93
2018-12-18T15:38:35.505Z,22.13
2018-12-18T15:40:43.149Z,25.20
2018-12-18T15:42:50.053Z,22.43
2018-12-18T15:44:57.035Z,19.33
2018-12-18T15:47:03.081Z,20.17
2018-12-18T15:49:08.436Z,25.70
2018-12-18T15:51:13.755Z,19.50
2018-12-18T15:53:20.494Z,23.57
2018-12-18T15:55:25.478Z,24.03
2018-12-18T15:57:30.654Z,21.80
2018-12-18T15:59:36.842Z,23.53
2018-12-18T16:01:43.762Z,25.67
2018-12-18T16:03:50.750Z,25.30
2018-12-18T16:05:58.058Z,21.63
2018-12-18T16:08:05.162Z,21.70
2018-12-18T16:10:10.827Z,19.37
2018-12-18T16:12:19.334Z,27.57
2018-12-18T16:14:25.641Z,20.40
2018-12-18T16:16:32.970Z,24.00
2018-12-18T16:18:39.434Z,23.63
2018-12-18T16:20:45.247Z,22.23
2018-12-18T16:22:51.561Z,20.93
2018-12-18T16:24:57.782Z,24.33
2018-12-18T16:27:03.978Z,23.30
2018-12-18T16:29:11.470Z,23.67
2018-12-18T16:31:17.578Z,18.77
2018-12-18T16:33:24.764Z,21.47
2018-12-18T16:35:30.599Z,19.67
2018-12-18T16:37:37.614Z,25.30
2018-12-18T16:39:44.774Z,21.17
2018-12-18T16:41:51.034Z,20.67
2018-12-18T16:43:57.356Z,23.77
2018-12-18T16:46:03.658Z,24.40
2018-12-18T16:48:11.189Z,20.67
2018-12-18T16:50:17.609Z,22.80
2018-12-18T16:52:25.053Z,21.13
2018-12-18T16:54:36.158Z,20.43
2018-12-18T16:56:45.038Z,11.30
2018-12-18T16:58:50.605Z,22.60
2018-12-18T17:00:56.657Z,22.03
2018-12-18T17:03:03.786Z,24.40
2018-12-18T17:05:10.377Z,18.87
2018-12-18T17:07:14.704Z,20.37
2018-12-18T17:09:20.102Z,23.03
2018-12-18T17:11:26.502Z,25.80
2018-12-18T17:13:32.861Z,23.67
2018-12-18T17:15:42.378Z,22.50
2018-12-18T17:17:49.422Z,26.53
2018-12-18T17:19:55.997Z,20.90
2018-12-18T17:22:00.669Z,24.23
2018-12-18T17:24:07.753Z,24.93
2018-12-18T17:26:15.739Z,22.60
2018-12-18T17:28:20.809Z,23.67
2018-12-18T17:30:25.347Z,20.90
2018-12-18T17:32:29.287Z,25.03
2018-12-18T17:34:35.676Z,24.97
2018-12-18T17:36:40.520Z,21.37
2018-12-18T17:38:48.169Z,22.73
2018-12-18T17:40:55.563Z,19.80
2018-12-18T17:43:02.644Z,22.10
2018-12-18T17:45:10.761Z,25.43
2018-12-18T17:47:18.666Z,21.73
2018-12-18T17:49:24.837Z,24.97
2018-12-18T17:51:31.374Z,25.90
2018-12-18T17:53:37.486Z,29.13
2018-12-18T17:55:49.322Z,28.20
2018-12-18T17:57:55.753Z,31.87
2018-12-18T18:00:01.438Z,24.27
2018-12-18T18:02:07.790Z,28.17
2018-12-18T18:04:13.682Z,27.80
2018-12-18T18:06:18.533Z,28.07
2018-12-18T18:08:22.656Z,26.53
2018-12-18T18:10:26.929Z,30.47
2018-12-18T18:12:31.298Z,29.43
2018-12-18T18:14:36.194Z,30.27
2018-12-18T18:16:42.758Z,36.10
2018-12-18T18:18:50.601Z,27.13
2018-12-18T18:20:57.486Z,34.47
2018-12-18T18:23:04.220Z,35.43
2018-12-18T18:25:14.810Z,34.10
2018-12-18T18:27:20.160Z,32.07
2018-12-18T18:29:26.922Z,35.53
2018-12-18T18:31:34.061Z,38.13
2018-12-18T18:33:41.448Z,38.70
2018-12-18T18:35:49.898Z,27.50
2018-12-18T18:37:57.451Z,40.00
2018-12-18T18:40:04.723Z,43.10
2018-12-18T18:42:09.697Z,44.73
2018-12-18T18:44:21.413Z,38.67
2018-12-18T18:46:27.793Z,43.73
2018-12-18T18:48:34.226Z,43.53
2018-12-18T18:50:39.249Z,39.17
2018-12-18T18:52:47.905Z,41.43
2018-12-18T18:54:55.069Z,44.07
2018-12-18T18:57:00.856Z,44.70
2018-12-18T18:59:07.812Z,47.53
2018-12-18T19:01:14.990Z,50.13
2018-12-18T19:03:30.126Z,48.77
2018-12-18T19:05:37.609Z,45.73
2018-12-18T19:07:44.726Z,49.50
2018-12-18T19:09:52.396Z,50.67
2018-12-18T19:11:59.077Z,54.77
2018-12-18T19:14:05.643Z,56.03
2018-12-18T19:16:12.778Z,58.47
2018-12-18T19:18:20.141Z,60.00
2018-12-18T19:20:25.566Z,56.53
2018-12-18T19:22:33.226Z,73.07
2018-12-18T19:24:38.002Z,56.57
2018-12-18T19:26:42.060Z,65.33
2018-12-18T19:28:50.196Z,64.17
2018-12-18T19:30:54.418Z,69.67
2018-12-18T19:32:59.957Z,61.93
2018-12-18T19:35:07.082Z,69.27
2018-12-18T19:37:14.045Z,64.47
2018-12-18T19:39:20.330Z,59.47
2018-12-18T19:41:25.706Z,67.47
2018-12-18T19:43:31.370Z,71.93
2018-12-18T19:45:37.196Z,66.50
2018-12-18T19:47:43.434Z,70.23
2018-12-18T19:49:49.868Z,75.47
2018-12-18T19:51:56.284Z,77.67
2018-12-18T19:54:04.138Z,73.60
2018-12-18T19:56:11.050Z,72.50
2018-12-18T19:58:17.998Z,72.07
2018-12-18T20:00:24.460Z,71.57
2018-12-18T20:02:31.403Z,66.47
2018-12-18T20:04:39.565Z,65.97
2018-12-18T20:06:45.932Z,62.97
2018-12-18T20:08:54.529Z,68.57
2018-12-18T20:11:02.349Z,73.07
2018-12-18T20:13:09.162Z,66.47
2018-12-18T20:15:14.986Z,73.57
2018-12-18T20:17:21.382Z,70.60
2018-12-18T20:19:28.932Z,64.33
2018-12-18T20:21:35.250Z,70.30
2018-12-18T20:23:42.218Z,62.20
2018-12-18T20:25:47.186Z,72.30
2018-12-18T20:27:51.176Z,71.87
2018-12-18T20:29:57.445Z,75.53
2018-12-18T20:32:04.718Z,76.73
2018-12-18T20:34:11.242Z,73.30
2018-12-18T20:36:17.398Z,69.90
2018-12-18T20:38:24.274Z,81.17
2018-12-18T20:40:30.489Z,88.10
2018-12-18T20:42:37.736Z,84.70
2018-12-18T20:44:45.182Z,79.07
2018-12-18T20:46:54.010Z,91.03
2018-12-18T20:49:01.046Z,88.07
2018-12-18T20:51:08.106Z,97.67
2018-12-18T20:53:15.505Z,85.53
2018-12-18T20:55:24.077Z,88.63
2018-12-18T20:57:30.539Z,94.73
2018-12-18T20:59:36.985Z,85.43
2018-12-18T21:01:48.064Z,99.97
2018-12-18T21:03:54.849Z,99.10
2018-12-18T21:06:02.071Z,90.90
2018-12-18T21:08:11.329Z,89.40
2018-12-18T21:10:17.834Z,98.03
2018-12-18T21:12:25.238Z,98.73
2018-12-18T21:14:33.129Z,96.37
2018-12-18T21:16:39.597Z,102.90
2018-12-18T21:18:47.897Z,71.87
2018-12-18T21:20:53.835Z,63.57
2018-12-18T21:23:00.747Z,99.47
2018-12-18T21:25:07.754Z,97.83
2018-12-18T21:27:12.165Z,97.33
2018-12-18T21:29:17.722Z,111.97
2018-12-18T21:31:22.099Z,107.37
2018-12-18T21:33:29.801Z,103.63
2018-12-18T21:35:36.987Z,112.93
2018-12-18T21:37:44.027Z,125.53
2018-12-18T21:39:50.398Z,119.67
2018-12-18T21:41:57.122Z,133.77
2018-12-18T21:44:03.885Z,138.27
2018-12-18T21:46:10.026Z,137.20
2018-12-18T21:48:17.289Z,134.37
2018-12-18T21:50:23.301Z,144.43
2018-12-18T21:52:29.900Z,163.37
2018-12-18T21:54:36.386Z,157.23
2018-12-18T21:56:42.593Z,166.73
2018-12-18T21:58:48.809Z,196.27
2018-12-18T22:00:55.026Z,192.07
2018-12-18T22:03:01.330Z,190.90
2018-12-18T22:05:08.242Z,180.73
2018-12-18T22:07:16.333Z,184.43
2018-12-18T22:09:20.208Z,201.20
2018-12-18T22:11:26.350Z,183.37
2018-12-18T22:13:33.025Z,172.20
2018-12-18T22:15:41.489Z,207.40
2018-12-18T22:17:47.305Z,206.97
2018-12-18T22:19:54.450Z,213.47
2018-12-18T22:22:00.334Z,198.07
2018-12-18T22:24:06.597Z,217.07
2018-12-18T22:26:14.158Z,190.60
2018-12-18T22:28:20.772Z,213.60
2018-12-18T22:30:27.269Z,217.40
2018-12-18T22:32:34.122Z,224.83
2018-12-18T22:34:40.246Z,220.40
2018-12-18T22:36:47.087Z,211.07
2018-12-18T22:38:53.258Z,231.37
2018-12-18T22:41:00.749Z,224.70
2018-12-18T22:43:08.242Z,202.73
2018-12-18T22:45:14.281Z,210.43
2018-12-18T22:47:18.802Z,108.53
2018-12-18T22:49:23.945Z,209.43
2018-12-18T22:51:29.609Z,178.23
2018-12-18T22:53:35.831Z,215.20
2018-12-18T22:55:45.053Z,199.87
2018-12-18T22:57:53.697Z,171.40
2018-12-18T22:59:58.822Z,184.83
2018-12-18T23:02:06.661Z,152.73
2018-12-18T23:04:10.954Z,168.03
2018-12-18T23:06:17.274Z,174.83
2018-12-18T23:08:23.824Z,163.53
2018-12-18T23:10:28.930Z,156.17
2018-12-18T23:12:33.437Z,140.83
2018-12-18T23:14:40.551Z,153.40
2018-12-18T23:16:47.500Z,108.80
2018-12-18T23:18:54.251Z,146.63
2018-12-18T23:21:00.421Z,138.67
2018-12-18T23:23:11.661Z,139.97
2018-12-18T23:25:18.126Z,144.77
2018-12-18T23:27:25.643Z,109.57
2018-12-18T23:29:34.187Z,131.60
2018-12-18T23:31:41.103Z,127.57
2018-12-18T23:33:48.553Z,120.60
2018-12-18T23:35:55.823Z,82.77
2018-12-18T23:38:02.292Z,66.90
2018-12-18T23:40:08.786Z,58.73
2018-12-18T23:42:16.307Z,61.80
2018-12-18T23:44:23.338Z,51.07
2018-12-18T23:46:31.099Z,53.33
2018-12-18T23:48:39.834Z,53.97
2018-12-18T23:50:45.333Z,41.10
2018-12-18T23:52:51.531Z,66.87
2018-12-18T23:54:59.139Z,62.77
2018-12-18T23:57:08.505Z,57.20
2018-12-18T23:59:14.677Z,66.77
